createdAt,value
2023-01-29T00:44:25.949Z,-0.44
2023-01-29T00:47:05.231Z,-0.39
2023-01-29T00:50:06.826Z,-0.56
2023-01-29T00:59:42.910Z,-0.63
2023-01-29T01:02:55.330Z,-0.61
2023-01-29T05:09:30.925Z,-1.36
2023-01-29T05:12:00.708Z,-1.50
2023-01-29T05:14:33.035Z,-1.37
2023-01-29T05:17:06.263Z,-1.43
2023-01-29T05:19:35.927Z,-1.37
2023-01-29T05:22:08.634Z,-1.47
2023-01-29T05:24:46.489Z,-1.61
2023-01-29T05:27:50.348Z,-1.58
2023-01-29T05:30:19.757Z,-1.48
2023-01-29T05:32:48.926Z,-1.57
2023-01-29T05:35:17.500Z,-1.53
2023-01-29T05:37:46.747Z,-1.52
2023-01-29T05:40:15.204Z,-1.55
2023-01-29T05:42:45.194Z,-1.74
2023-01-29T05:45:16.159Z,-1.68
2023-01-29T05:47:48.790Z,-1.84
2023-01-29T05:50:19.118Z,-1.73
2023-01-29T05:52:51.050Z,-1.72
2023-01-29T05:55:20.910Z,-1.92
2023-01-29T05:57:49.978Z,-1.99
2023-01-29T06:00:21.597Z,-1.93
2023-01-29T06:02:53.574Z,-1.94
2023-01-29T06:05:24.867Z,-1.95
2023-01-29T06:07:54.189Z,-1.95
2023-01-29T06:10:24.408Z,-1.98
2023-01-29T06:12:53.750Z,-1.93
2023-01-29T06:15:22.137Z,-1.96
2023-01-29T06:17:51.867Z,-2.26
2023-01-29T06:20:21.360Z,-2.17
2023-01-29T06:22:58.840Z,-2.20
2023-01-29T06:25:39.349Z,-2.25
2023-01-29T06:31:11.994Z,-2.25
2023-01-29T06:36:34.296Z,-2.19
2023-01-29T06:47:56.217Z,-2.18
2023-01-29T06:50:26.039Z,-2.15
2023-01-29T06:52:54.807Z,-2.20
2023-01-29T06:55:23.183Z,-2.19
2023-01-29T06:57:51.029Z,-2.09
2023-01-29T07:00:19.134Z,-2.14
2023-01-29T07:02:49.845Z,-2.08
2023-01-29T07:05:18.057Z,-1.91
2023-01-29T07:07:45.667Z,-2.13
2023-01-29T07:10:12.953Z,-2.11
2023-01-29T07:12:40.022Z,-2.07
2023-01-29T07:15:09.669Z,-1.99
2023-01-29T07:17:37.850Z,-2.07
2023-01-29T07:20:06.379Z,-2.12
2023-01-29T07:22:34.117Z,-2.06
2023-01-29T07:25:01.034Z,-1.96
2023-01-29T07:27:28.282Z,-1.98
2023-01-29T07:29:55.872Z,-1.90
2023-01-29T07:32:24.063Z,-1.75
2023-01-29T07:34:51.139Z,-1.82
2023-01-29T07:44:41.937Z,-1.97
2023-01-29T07:47:16.368Z,-2.05
2023-01-29T07:49:48.543Z,-1.91
2023-01-29T07:52:27.360Z,-1.84
2023-01-29T07:57:44.709Z,-1.83
2023-01-29T08:00:23.780Z,-1.82
2023-01-29T08:03:11.380Z,-1.88
2023-01-29T08:05:50.354Z,-1.89
2023-01-29T08:08:26.912Z,-1.71
2023-01-29T08:10:55.711Z,-1.77
2023-01-29T08:13:39.530Z,-1.95
2023-01-29T08:16:12.458Z,-1.90
2023-01-29T08:18:48.825Z,-1.62
2023-01-29T08:21:22.448Z,-1.70
2023-01-29T08:23:53.061Z,-1.69
2023-01-29T08:26:27.487Z,-1.53
2023-01-29T08:28:59.901Z,-1.54
2023-01-29T08:31:32.969Z,-1.52
2023-01-29T08:34:08.238Z,-1.54
2023-01-29T08:36:41.992Z,-1.45
2023-01-29T08:39:15.486Z,-1.35
2023-01-29T08:41:44.777Z,-1.44
2023-01-29T08:44:16.426Z,-1.47
2023-01-29T08:54:07.756Z,-1.45
2023-01-29T08:56:34.753Z,-1.36
2023-01-29T08:59:04.438Z,-1.74
2023-01-29T09:01:34.414Z,-1.56
2023-01-29T09:04:03.256Z,-1.39
2023-01-29T09:06:33.796Z,-1.67
2023-01-29T09:09:03.689Z,-1.31
2023-01-29T09:11:34.738Z,-1.30
2023-01-29T09:14:02.407Z,-1.53
2023-01-29T09:16:32.239Z,-1.56
2023-01-29T09:19:02.001Z,-1.93
2023-01-29T09:21:29.997Z,-1.72
2023-01-29T09:23:57.819Z,-1.58
2023-01-29T09:26:27.060Z,-1.42
2023-01-29T09:28:54.719Z,-1.56
2023-01-29T09:31:24.280Z,-1.25
2023-01-29T09:33:55.866Z,-1.35
2023-01-29T09:36:26.429Z,-1.15
2023-01-29T09:38:55.828Z,-1.00
2023-01-29T09:41:48.256Z,-0.63
2023-01-29T09:44:36.908Z,-0.89
2023-01-29T09:47:06.222Z,-0.63
2023-01-29T09:49:42.683Z,-0.91
2023-01-29T09:52:27.593Z,-0.83
2023-01-29T09:55:00.462Z,-0.98
2023-01-29T09:57:56.557Z,-0.86
2023-01-29T10:00:31.955Z,-0.52
2023-01-29T10:02:59.483Z,-0.66
2023-01-29T10:05:54.355Z,-0.73
2023-01-29T10:08:42.364Z,-0.69
2023-01-29T10:11:22.581Z,-0.36
2023-01-29T10:14:15.481Z,-0.21
2023-01-29T10:16:58.113Z,-0.40
2023-01-29T10:19:43.839Z,-0.49
2023-01-29T10:22:45.962Z,-0.20
2023-01-29T10:25:21.079Z,-0.11
2023-01-29T10:27:57.074Z,-0.46
2023-01-29T10:30:41.511Z,-0.55
2023-01-29T10:33:19.166Z,-0.33
2023-01-29T10:35:55.902Z,-0.31
2023-01-29T10:38:46.320Z,-0.55
2023-01-29T10:41:26.341Z,-0.72
2023-01-29T10:44:14.670Z,-0.29
2023-01-29T10:51:21.024Z,-0.37
2023-01-29T10:54:15.869Z,-0.51
2023-01-29T10:57:08.188Z,-0.41
2023-01-29T10:59:56.048Z,-0.45
2023-01-29T11:08:35.779Z,-0.81
2023-01-29T11:14:29.468Z,-0.63
2023-01-29T11:17:07.772Z,-0.78
2023-01-29T11:19:41.043Z,-0.82
2023-01-29T11:22:31.954Z,-0.89
2023-01-29T11:25:25.320Z,-0.93
2023-01-29T11:28:03.203Z,-1.03
2023-01-29T11:37:25.471Z,-0.56
2023-01-29T12:11:36.045Z,-0.62
2023-01-29T12:17:17.435Z,-0.60
2023-01-29T12:19:55.627Z,-0.27
2023-01-29T12:28:53.853Z,-0.33
2023-01-29T20:03:00.861Z,-4.74
2023-01-29T20:08:38.250Z,-4.77
2023-01-29T20:19:26.521Z,-4.72
2023-01-29T20:24:49.049Z,-4.75
2023-01-29T20:27:25.182Z,-4.77
2023-01-29T20:29:58.694Z,-4.76
2023-01-29T20:32:38.855Z,-4.92
2023-01-29T20:38:04.595Z,-5.01
2023-01-29T20:40:37.552Z,-4.98
2023-01-29T20:45:51.467Z,-4.99
2023-01-29T20:48:24.726Z,-5.08
2023-01-29T20:50:59.391Z,-5.29
2023-01-29T20:53:32.905Z,-5.34
2023-01-29T20:56:06.160Z,-5.32
2023-01-29T20:58:38.394Z,-5.38
2023-01-29T21:01:14.334Z,-5.39
2023-01-29T21:03:48.200Z,-5.36
2023-01-29T21:06:18.216Z,-5.50
2023-01-29T21:08:51.478Z,-5.46
2023-01-29T21:11:21.734Z,-5.40
2023-01-29T21:13:54.659Z,-5.41
2023-01-29T21:16:26.721Z,-5.44
2023-01-29T21:18:59.323Z,-5.45
2023-01-29T21:21:29.956Z,-5.49
2023-01-29T21:24:02.376Z,-5.55
2023-01-29T21:26:33.218Z,-5.65
2023-01-29T21:29:03.806Z,-5.69
2023-01-29T21:31:38.156Z,-5.68
2023-01-29T21:34:09.831Z,-5.69
2023-01-29T21:36:41.353Z,-5.74
2023-01-29T21:39:17.632Z,-5.73
2023-01-29T21:42:10.363Z,-5.74
2023-01-29T21:44:39.611Z,-5.79
2023-01-29T21:47:14.721Z,-5.82
2023-01-29T21:49:44.386Z,-5.80
2023-01-29T21:52:15.294Z,-5.86
2023-01-29T21:54:48.994Z,-5.87
2023-01-29T21:57:18.590Z,-5.86
2023-01-29T21:59:52.874Z,-5.88
2023-01-29T22:02:24.111Z,-6.07
2023-01-29T22:04:55.670Z,-5.98
2023-01-29T22:07:25.616Z,-6.06
2023-01-29T22:09:55.298Z,-6.04
2023-01-29T22:12:25.541Z,-6.13
2023-01-29T22:14:55.543Z,-6.09
2023-01-29T22:17:24.023Z,-6.10
2023-01-29T22:19:53.878Z,-6.17
2023-01-29T22:22:26.362Z,-6.22
2023-01-29T22:24:55.392Z,-6.19
2023-01-29T22:27:25.463Z,-6.19
2023-01-29T22:29:54.007Z,-6.32
2023-01-29T22:32:23.266Z,-6.36
2023-01-29T22:34:54.257Z,-6.30
2023-01-29T22:37:22.701Z,-6.28
2023-01-29T22:39:51.107Z,-6.35
2023-01-29T22:42:20.990Z,-6.33
2023-01-29T22:44:49.108Z,-6.35
2023-01-29T22:47:17.498Z,-6.32
2023-01-29T22:49:45.765Z,-6.36
2023-01-29T22:52:13.115Z,-6.55
2023-01-29T22:54:41.897Z,-6.56
2023-01-29T22:57:14.293Z,-6.58
2023-01-29T22:59:41.466Z,-6.53
2023-01-29T23:02:09.217Z,-6.56
2023-01-29T23:04:36.685Z,-6.53
2023-01-29T23:07:03.973Z,-6.48
2023-01-29T23:09:31.111Z,-6.56
2023-01-29T23:11:57.794Z,-6.70
2023-01-29T23:14:24.534Z,-6.55
2023-01-29T23:16:51.259Z,-6.62
2023-01-29T23:19:20.561Z,-6.72
2023-01-29T23:21:47.979Z,-6.67
2023-01-29T23:24:16.083Z,-6.66
2023-01-29T23:27:01.926Z,-6.64
2023-01-29T23:29:28.669Z,-6.71
2023-01-29T23:31:55.421Z,-6.67
2023-01-29T23:34:22.399Z,-6.65
2023-01-29T23:36:49.443Z,-6.54
2023-01-29T23:39:16.902Z,-6.56
2023-01-29T23:41:44.268Z,-6.57
2023-01-29T23:44:11.141Z,-6.68
2023-01-29T23:46:38.271Z,-6.68
2023-01-29T23:49:05.571Z,-6.69
2023-01-29T23:51:33.247Z,-6.72
2023-01-29T23:53:59.984Z,-6.73
2023-01-29T23:56:26.933Z,-6.81
2023-01-29T23:58:59.888Z,-6.72
